createdAt,value
2017-11-28T00:01:08.960Z,63.30
2017-11-28T00:03:36.671Z,63.30
2017-11-28T00:06:04.287Z,62.90
2017-11-28T00:08:31.900Z,62.00
2017-11-28T00:10:59.586Z,61.00
2017-11-28T00:13:27.223Z,59.90
2017-11-28T00:18:23.333Z,59.20
2017-11-28T00:20:50.946Z,58.60
2017-11-28T00:23:18.586Z,58.40
2017-11-28T00:28:13.904Z,60.40
2017-11-28T00:30:41.515Z,59.70
2017-11-28T00:33:09.678Z,58.60
2017-11-28T00:35:38.128Z,61.00
2017-11-28T00:38:05.747Z,64.00
2017-11-28T00:40:33.448Z,64.70
2017-11-28T00:43:01.098Z,65.00
2017-11-28T00:45:28.728Z,65.00
2017-11-28T00:47:56.397Z,65.30
2017-11-28T00:50:24.021Z,63.30
2017-11-28T00:52:51.638Z,62.30
2017-11-28T00:55:19.341Z,62.60
2017-11-28T00:57:46.961Z,61.60
2017-11-28T01:00:14.706Z,60.70
2017-11-28T01:05:10.076Z,58.80
2017-11-28T01:07:38.615Z,58.80
2017-11-28T01:15:15.993Z,58.50
2017-11-28T01:17:43.608Z,57.60
2017-11-28T01:20:11.229Z,56.80
2017-11-28T01:22:39.855Z,57.10
2017-11-28T01:25:07.474Z,56.80
2017-11-28T01:27:36.025Z,55.50
2017-11-28T01:30:03.720Z,55.60
2017-11-28T01:32:31.333Z,55.40
2017-11-28T01:34:58.962Z,55.80
2017-11-28T01:37:27.635Z,55.50
2017-11-28T01:39:55.246Z,56.20
2017-11-28T01:42:23.798Z,56.20
2017-11-28T01:44:51.499Z,55.90
2017-11-28T01:47:20.045Z,54.50
2017-11-28T01:49:47.660Z,55.40
2017-11-28T01:52:16.147Z,59.00
2017-11-28T01:54:43.766Z,61.50
2017-11-28T01:57:11.422Z,62.00
2017-11-28T01:59:39.931Z,62.90
2017-11-28T02:02:07.584Z,64.00
2017-11-28T02:04:35.221Z,64.20
2017-11-28T02:07:03.849Z,64.70
2017-11-28T02:09:32.406Z,64.10
2017-11-28T02:12:00.047Z,64.00
2017-11-28T02:14:28.654Z,64.20
2017-11-28T02:19:36.784Z,60.80
2017-11-28T02:22:05.222Z,62.60
2017-11-28T02:24:33.765Z,62.90
2017-11-28T02:27:02.716Z,62.80
2017-11-28T02:29:30.342Z,63.30
2017-11-28T02:31:58.727Z,63.30
2017-11-28T02:34:27.330Z,62.80
2017-11-28T02:36:54.967Z,62.90
2017-11-28T02:39:23.395Z,62.00
2017-11-28T02:41:51.092Z,61.80
2017-11-28T02:44:18.712Z,60.80
2017-11-28T02:46:46.328Z,61.20
2017-11-28T02:49:24.807Z,61.20
2017-11-28T02:54:35.183Z,60.50
2017-11-28T02:57:02.809Z,62.30
2017-11-28T03:02:10.037Z,58.90
2017-11-28T03:04:38.559Z,59.30
2017-11-28T03:07:09.192Z,59.20
2017-11-28T03:14:56.249Z,57.70
2017-11-28T03:17:23.932Z,56.90
2017-11-28T03:19:57.213Z,57.50
2017-11-28T03:22:31.664Z,58.70
2017-11-28T03:27:46.397Z,62.30
2017-11-28T03:32:56.017Z,60.90
2017-11-28T03:37:51.254Z,59.10
2017-11-28T03:40:19.384Z,58.90
2017-11-28T03:42:46.992Z,58.90
2017-11-28T03:45:14.577Z,61.10
2017-11-28T03:47:42.276Z,64.50
2017-11-28T03:50:09.888Z,65.40
2017-11-28T03:52:37.521Z,65.70
2017-11-28T03:55:06.082Z,65.40
2017-11-28T03:57:33.694Z,64.80
2017-11-28T04:00:04.896Z,64.20
2017-11-28T04:02:32.613Z,64.30
2017-11-28T04:05:00.239Z,63.80
2017-11-28T04:07:28.826Z,63.20
2017-11-28T04:09:57.343Z,62.90
2017-11-28T04:12:25.790Z,63.80
2017-11-28T04:14:53.405Z,63.60
2017-11-28T04:17:22.029Z,64.60
2017-11-28T04:19:49.662Z,64.20
2017-11-28T04:27:13.309Z,63.70
2017-11-28T04:29:40.927Z,64.70
2017-11-28T04:34:47.697Z,64.80
2017-11-28T04:37:15.396Z,65.60
2017-11-28T04:39:43.048Z,64.60
2017-11-28T04:42:10.696Z,64.80
2017-11-28T04:44:38.353Z,64.50
2017-11-28T04:47:06.956Z,64.90
2017-11-28T04:49:35.388Z,66.70
2017-11-28T04:54:31.527Z,66.60
2017-11-28T04:57:00.092Z,67.40
2017-11-28T04:59:28.767Z,67.30
2017-11-28T05:01:56.396Z,67.60
2017-11-28T05:04:24.012Z,66.80
2017-11-28T05:06:51.706Z,66.10
2017-11-28T05:09:19.345Z,66.70
2017-11-28T05:14:15.454Z,66.30
2017-11-28T05:16:43.083Z,66.40
2017-11-28T05:19:10.701Z,66.30
2017-11-28T05:24:06.968Z,66.70
2017-11-28T05:26:34.586Z,66.70
2017-11-28T05:29:02.257Z,66.90
2017-11-28T05:31:29.875Z,67.60
2017-11-28T05:36:40.421Z,67.50
2017-11-28T05:39:08.113Z,67.50
2017-11-28T05:41:35.738Z,67.40
2017-11-28T05:44:03.414Z,66.20
2017-11-28T05:46:31.029Z,67.10
2017-11-28T05:48:58.652Z,67.60
2017-11-28T05:51:26.355Z,66.80
2017-11-28T05:53:54.676Z,69.00
2017-11-28T05:56:22.298Z,68.70
2017-11-28T05:58:49.988Z,69.30
2017-11-28T06:01:18.413Z,69.90
2017-11-28T06:03:46.042Z,70.70
2017-11-28T06:06:13.744Z,71.20
2017-11-28T06:08:43.384Z,71.20
2017-11-28T06:11:10.999Z,70.40
2017-11-28T06:13:42.223Z,70.30
2017-11-28T06:16:09.853Z,69.70
2017-11-28T06:18:37.500Z,69.60
2017-11-28T06:21:06.143Z,69.30
2017-11-28T06:23:33.798Z,69.60
2017-11-28T06:26:02.364Z,70.90
2017-11-28T06:28:30.040Z,70.60
2017-11-28T06:30:57.676Z,69.90
2017-11-28T06:36:05.576Z,70.60
2017-11-28T06:38:33.184Z,70.30
2017-11-28T06:41:01.660Z,70.60
2017-11-28T06:43:29.362Z,68.30
2017-11-28T06:48:24.613Z,68.90
2017-11-28T06:50:53.144Z,68.50
2017-11-28T06:53:20.782Z,68.70
2017-11-28T06:55:48.409Z,68.60
2017-11-28T06:58:16.115Z,69.00
2017-11-28T07:00:43.738Z,69.10
2017-11-28T07:03:12.121Z,69.30
2017-11-28T07:05:39.799Z,69.30
2017-11-28T07:08:07.422Z,69.30
2017-11-28T07:10:35.070Z,69.70
2017-11-28T07:15:30.427Z,71.10
2017-11-28T07:17:58.065Z,70.80
2017-11-28T07:20:26.577Z,70.80
2017-11-28T07:22:55.029Z,71.80
2017-11-28T07:25:23.157Z,71.60
2017-11-28T07:27:50.833Z,72.00
2017-11-28T07:30:18.478Z,70.10
2017-11-28T07:32:46.097Z,70.40
2017-11-28T07:35:14.231Z,70.30
2017-11-28T07:42:38.786Z,69.60
2017-11-28T07:47:48.531Z,69.60
2017-11-28T07:50:16.157Z,69.30
2017-11-28T07:55:12.309Z,70.20
2017-11-28T07:57:40.725Z,69.50
2017-11-28T08:00:08.359Z,69.80
2017-11-28T08:02:36.060Z,70.00
2017-11-28T08:05:04.500Z,69.30
2017-11-28T08:07:32.144Z,69.00
2017-11-28T08:09:59.857Z,69.20
2017-11-28T08:12:28.347Z,69.40
2017-11-28T08:14:56.013Z,68.80
2017-11-28T08:17:24.845Z,68.20
2017-11-28T08:19:52.466Z,67.50
2017-11-28T08:22:20.097Z,68.10
2017-11-28T08:24:47.801Z,68.00
2017-11-28T08:27:16.241Z,67.70
2017-11-28T08:29:43.869Z,66.70
2017-11-28T08:32:12.424Z,66.10
2017-11-28T08:37:08.628Z,66.20
2017-11-28T08:39:36.379Z,65.80
2017-11-28T08:42:03.996Z,65.90
2017-11-28T08:44:31.621Z,65.20
2017-11-28T08:46:59.301Z,64.80
2017-11-28T08:52:06.105Z,62.80
2017-11-28T08:54:33.728Z,63.60
2017-11-28T08:57:02.320Z,62.20
2017-11-28T08:59:30.009Z,62.70
2017-11-28T09:01:57.659Z,60.30
2017-11-28T09:04:26.121Z,61.50
2017-11-28T09:06:53.812Z,60.60
2017-11-28T09:09:21.465Z,63.20
2017-11-28T09:11:49.072Z,59.00
2017-11-28T09:14:17.510Z,59.50
2017-11-28T09:16:46.095Z,57.40
2017-11-28T09:19:13.784Z,57.60
2017-11-28T09:21:41.469Z,57.40
2017-11-28T09:24:09.103Z,59.00
2017-11-28T09:26:37.100Z,56.00
2017-11-28T09:29:05.746Z,54.80
2017-11-28T09:31:34.252Z,54.30
2017-11-28T09:34:01.886Z,52.10
2017-11-28T09:36:30.457Z,51.10
2017-11-28T09:38:58.094Z,51.70
2017-11-28T09:41:25.740Z,51.00
2017-11-28T09:43:53.429Z,52.00
2017-11-28T09:46:21.049Z,51.30
2017-11-28T09:48:48.672Z,52.30
2017-11-28T09:51:16.493Z,51.80
2017-11-28T09:53:44.125Z,51.90
2017-11-28T09:56:12.574Z,49.90
2017-11-28T09:58:41.104Z,48.50
2017-11-28T10:03:49.371Z,48.80
2017-11-28T10:06:16.991Z,49.60
2017-11-28T10:08:45.547Z,48.90
2017-11-28T10:11:13.225Z,49.40
2017-11-28T10:13:40.848Z,50.90
2017-11-28T10:16:09.432Z,50.70
2017-11-28T10:18:37.149Z,49.90
2017-11-28T10:21:11.387Z,46.70
2017-11-28T10:23:39.128Z,46.10
2017-11-28T10:26:07.571Z,46.40
2017-11-28T10:28:35.202Z,47.60
2017-11-28T10:31:02.899Z,45.50
2017-11-28T10:33:31.350Z,46.40
2017-11-28T10:36:02.186Z,45.50
2017-11-28T10:38:30.132Z,44.80
2017-11-28T10:40:58.718Z,44.50
2017-11-28T10:43:26.430Z,46.00
2017-11-28T10:45:54.052Z,45.30
2017-11-28T10:48:22.414Z,44.10
2017-11-28T10:50:50.117Z,45.70
2017-11-28T10:53:18.729Z,45.70
2017-11-28T10:55:47.933Z,46.50
2017-11-28T10:58:15.620Z,44.50
2017-11-28T11:00:44.232Z,46.30
2017-11-28T11:03:11.865Z,46.10
2017-11-28T11:05:39.589Z,47.00
2017-11-28T11:08:07.221Z,44.30
2017-11-28T11:10:35.118Z,45.00
2017-11-28T11:13:02.539Z,47.00
2017-11-28T11:15:30.164Z,48.40
2017-11-28T11:17:57.787Z,49.40
2017-11-28T11:20:28.564Z,47.50
2017-11-28T11:25:36.127Z,48.00
2017-11-28T11:28:03.749Z,48.30
2017-11-28T11:30:32.333Z,47.60
2017-11-28T11:33:00.008Z,47.50
2017-11-28T11:35:27.632Z,47.60
2017-11-28T11:37:55.255Z,45.20
2017-11-28T11:40:22.950Z,46.90
2017-11-28T11:42:50.576Z,48.30
2017-11-28T11:45:19.022Z,48.50
2017-11-28T11:47:47.627Z,48.80
2017-11-28T11:50:15.247Z,49.30
2017-11-28T11:52:43.820Z,50.40
2017-11-28T11:55:12.397Z,50.60
2017-11-28T11:57:40.017Z,51.90
2017-11-28T12:00:08.603Z,52.00
2017-11-28T12:02:37.230Z,53.10
2017-11-28T12:05:04.892Z,53.50
2017-11-28T12:07:32.509Z,53.40
2017-11-28T12:10:01.121Z,53.40
2017-11-28T12:12:29.679Z,53.10
2017-11-28T12:17:25.954Z,53.10
2017-11-28T12:19:54.456Z,53.00
2017-11-28T12:22:22.084Z,53.40
2017-11-28T12:24:49.769Z,53.20
2017-11-28T12:27:18.221Z,53.00
2017-11-28T12:29:46.789Z,53.10
2017-11-28T12:37:22.986Z,53.40
2017-11-28T12:42:19.049Z,52.90
2017-11-28T12:44:47.684Z,53.00
2017-11-28T12:47:16.104Z,52.50
2017-11-28T12:49:44.682Z,53.90
2017-11-28T12:52:12.360Z,54.20
2017-11-28T12:54:39.989Z,53.80
2017-11-28T12:57:08.545Z,54.10
2017-11-28T12:59:36.241Z,55.40
2017-11-28T13:02:04.853Z,55.40
2017-11-28T13:04:32.472Z,55.60
2017-11-28T13:07:01.125Z,55.70
2017-11-28T13:09:29.680Z,54.70
2017-11-28T13:11:57.317Z,55.50
2017-11-28T13:14:25.948Z,55.00
2017-11-28T13:16:53.571Z,55.30
2017-11-28T13:19:22.063Z,54.70
2017-11-28T13:21:49.770Z,54.20
2017-11-28T13:24:17.384Z,54.70
2017-11-28T13:26:46.829Z,54.90
2017-11-28T13:29:15.339Z,54.80
2017-11-28T13:31:43.773Z,54.30
2017-11-28T13:34:11.407Z,54.20
2017-11-28T13:36:39.100Z,54.90
2017-11-28T13:39:06.727Z,54.60
2017-11-28T13:41:35.162Z,54.00
2017-11-28T13:44:03.809Z,54.20
2017-11-28T13:46:32.312Z,54.50
2017-11-28T13:49:01.818Z,55.30
2017-11-28T13:51:31.556Z,54.50
2017-11-28T13:53:59.186Z,54.10
2017-11-28T13:56:27.625Z,54.30
2017-11-28T13:58:55.338Z,54.80
2017-11-28T14:04:03.012Z,55.00
2017-11-28T14:06:30.645Z,55.00
2017-11-28T14:08:58.261Z,54.90
2017-11-28T14:11:25.976Z,55.60
2017-11-28T14:13:53.599Z,55.50
2017-11-28T14:16:21.222Z,55.30
2017-11-28T14:18:49.775Z,55.70
2017-11-28T14:24:07.418Z,53.70
2017-11-28T14:26:40.747Z,53.20
2017-11-28T14:29:09.403Z,52.60
2017-11-28T14:34:17.665Z,53.40
2017-11-28T14:42:11.064Z,54.00
2017-11-28T14:47:19.654Z,53.70
2017-11-28T14:49:48.229Z,52.90
2017-11-28T14:55:00.171Z,52.40
2017-11-28T14:57:28.745Z,52.20
2017-11-28T15:00:02.107Z,53.00
2017-11-28T15:02:35.438Z,53.30
2017-11-28T15:05:08.804Z,53.60
2017-11-28T15:10:22.056Z,56.00
2017-11-28T15:12:56.369Z,56.70
2017-11-28T15:15:29.725Z,55.70
2017-11-28T15:20:40.990Z,57.70
2017-11-28T15:28:34.052Z,59.20
2017-11-28T15:33:42.551Z,59.00
2017-11-28T15:36:10.235Z,59.30
2017-11-28T15:38:38.696Z,59.20
2017-11-28T15:41:07.162Z,58.40
2017-11-28T15:43:35.728Z,58.00
2017-11-28T15:46:04.241Z,58.30
2017-11-28T15:48:31.865Z,58.90
2017-11-28T15:50:59.569Z,59.50
2017-11-28T15:53:27.191Z,60.90
2017-11-28T15:58:22.522Z,62.10
2017-11-28T16:00:50.146Z,62.70
2017-11-28T16:03:17.766Z,62.90
2017-11-28T16:05:46.189Z,63.20
2017-11-28T16:08:13.808Z,63.30
2017-11-28T16:10:41.438Z,63.80
2017-11-28T16:13:11.045Z,63.70
2017-11-28T16:15:38.657Z,64.10
2017-11-28T16:18:06.282Z,64.20
2017-11-28T16:20:33.975Z,64.50
2017-11-28T16:23:01.596Z,64.60
2017-11-28T16:25:31.161Z,65.00
2017-11-28T16:28:00.450Z,64.90
2017-11-28T16:30:27.914Z,64.50
2017-11-28T16:32:55.557Z,64.80
2017-11-28T16:35:24.102Z,65.00
2017-11-28T16:37:51.714Z,66.20
2017-11-28T16:42:59.312Z,65.30
2017-11-28T16:45:26.883Z,64.80
2017-11-28T16:47:54.503Z,63.90
2017-11-28T16:50:22.177Z,64.70
2017-11-28T16:52:49.800Z,65.00
2017-11-28T16:55:17.427Z,65.30
2017-11-28T16:57:45.132Z,65.30
2017-11-28T17:00:13.596Z,64.90
2017-11-28T17:02:42.156Z,64.80
2017-11-28T17:05:09.840Z,64.50
2017-11-28T17:07:37.486Z,64.70
2017-11-28T17:10:05.093Z,64.70
2017-11-28T17:12:33.504Z,64.90
2017-11-28T17:15:01.054Z,65.50
2017-11-28T17:17:28.682Z,65.30
2017-11-28T17:19:56.466Z,64.90
2017-11-28T17:22:24.088Z,65.00
2017-11-28T17:24:51.708Z,65.90
2017-11-28T17:27:19.435Z,65.50
2017-11-28T17:29:47.078Z,65.00
2017-11-28T17:32:14.703Z,65.30
2017-11-28T17:34:42.384Z,65.20
2017-11-28T17:37:10.830Z,65.20
2017-11-28T17:44:51.811Z,64.50
2017-11-28T17:47:22.690Z,64.70
2017-11-28T17:49:49.053Z,64.70
2017-11-28T17:52:18.553Z,63.40
2017-11-28T17:54:48.400Z,63.70
2017-11-28T17:57:16.050Z,64.00
2017-11-28T17:59:43.985Z,63.30
2017-11-28T18:02:12.622Z,63.70
2017-11-28T18:04:40.245Z,64.20
2017-11-28T18:07:07.881Z,64.20
2017-11-28T18:09:35.580Z,64.20
2017-11-28T18:12:03.232Z,64.30
2017-11-28T18:14:32.160Z,63.40
2017-11-28T18:16:59.844Z,63.20
2017-11-28T18:19:27.509Z,63.10
2017-11-28T18:21:56.065Z,63.40
2017-11-28T18:24:23.899Z,63.70
2017-11-28T18:26:54.346Z,64.10
2017-11-28T18:29:21.966Z,63.80
2017-11-28T18:31:49.646Z,63.30
2017-11-28T18:34:17.276Z,63.20
2017-11-28T18:36:44.903Z,64.00
2017-11-28T18:39:13.276Z,65.70
2017-11-28T18:41:41.854Z,66.10
2017-11-28T18:44:10.458Z,65.90
2017-11-28T18:46:39.028Z,66.40
2017-11-28T18:49:06.644Z,66.60
2017-11-28T18:51:34.287Z,67.50
2017-11-28T18:54:02.018Z,67.50
2017-11-28T18:56:29.642Z,67.30
2017-11-28T18:58:57.284Z,67.40
2017-11-28T19:01:24.970Z,67.70
2017-11-28T19:03:52.595Z,67.60
2017-11-28T19:08:59.388Z,67.50
2017-11-28T19:11:27.025Z,66.50
2017-11-28T19:13:57.556Z,66.00
2017-11-28T19:16:23.384Z,65.80
2017-11-28T19:18:51.022Z,66.60
2017-11-28T19:21:18.666Z,66.80
2017-11-28T19:23:46.374Z,66.90
2017-11-28T19:26:14.058Z,67.40
2017-11-28T19:28:41.712Z,68.20
2017-11-28T19:31:09.437Z,67.60
2017-11-28T19:33:37.063Z,68.10
2017-11-28T19:38:32.393Z,68.60
2017-11-28T19:41:00.019Z,67.80
2017-11-28T19:43:27.727Z,68.70
2017-11-28T19:45:55.358Z,68.50
2017-11-28T19:48:23.002Z,68.20
2017-11-28T19:50:50.645Z,68.10
2017-11-28T19:55:59.342Z,68.00
2017-11-28T19:58:27.255Z,68.10
2017-11-28T20:00:54.826Z,67.60
2017-11-28T20:03:22.470Z,67.10
2017-11-28T20:05:50.186Z,68.50
2017-11-28T20:08:18.121Z,68.30
2017-11-28T20:10:45.541Z,68.20
2017-11-28T20:13:13.237Z,69.30
2017-11-28T20:15:40.882Z,69.30
2017-11-28T20:18:09.144Z,69.80
2017-11-28T20:20:37.365Z,68.50
2017-11-28T20:23:05.741Z,68.50
2017-11-28T20:25:33.509Z,69.30
2017-11-28T20:28:01.698Z,67.90
2017-11-28T20:30:29.267Z,69.40
2017-11-28T20:32:58.418Z,69.20
2017-11-28T20:35:24.627Z,69.90
2017-11-28T20:37:52.282Z,70.30
2017-11-28T20:42:51.721Z,70.60
2017-11-28T20:45:19.523Z,69.90
2017-11-28T20:47:47.154Z,69.80
2017-11-28T20:52:42.530Z,69.50
2017-11-28T20:55:10.168Z,69.40
2017-11-28T20:57:37.849Z,69.10
2017-11-28T21:00:05.866Z,68.40
2017-11-28T21:05:12.767Z,70.80
2017-11-28T21:07:40.405Z,69.40
2017-11-28T21:10:08.055Z,68.70
2017-11-28T21:12:35.843Z,68.20
2017-11-28T21:15:03.485Z,68.00
2017-11-28T21:17:31.223Z,67.80
2017-11-28T21:19:58.917Z,68.50
2017-11-28T21:22:26.561Z,68.20
2017-11-28T21:24:54.188Z,68.70
2017-11-28T21:27:21.881Z,68.70
2017-11-28T21:29:49.530Z,68.60
2017-11-28T21:32:17.154Z,68.30
2017-11-28T21:34:44.859Z,68.90
2017-11-28T21:37:12.513Z,69.40
2017-11-28T21:39:40.141Z,69.30
2017-11-28T21:42:08.674Z,69.00
2017-11-28T21:44:36.304Z,69.10
2017-11-28T21:47:03.936Z,68.50
2017-11-28T21:49:31.638Z,68.90
2017-11-28T21:51:59.241Z,68.90
2017-11-28T21:54:26.876Z,68.90
2017-11-28T21:56:54.583Z,69.30
2017-11-28T21:59:22.204Z,68.80
2017-11-28T22:01:50.395Z,69.00
2017-11-28T22:04:18.462Z,69.70
2017-11-28T22:06:46.029Z,70.00
2017-11-28T22:09:13.674Z,69.30
2017-11-28T22:14:09.612Z,69.30
2017-11-28T22:16:39.098Z,69.60
2017-11-28T22:19:07.031Z,70.10
2017-11-28T22:21:34.595Z,69.40
2017-11-28T22:24:02.232Z,69.70
2017-11-28T22:31:39.148Z,71.30
2017-11-28T22:36:46.397Z,69.70
2017-11-28T22:41:42.637Z,70.00
2017-11-28T22:44:10.469Z,69.20
2017-11-28T22:46:38.062Z,69.50
2017-11-28T22:51:33.386Z,69.30
2017-11-28T22:54:01.016Z,69.40
2017-11-28T22:56:28.636Z,69.20
2017-11-28T22:58:56.343Z,69.90
2017-11-28T23:01:23.975Z,69.30
2017-11-28T23:03:51.604Z,68.60
2017-11-28T23:06:19.358Z,69.20
2017-11-28T23:08:46.994Z,69.20
2017-11-28T23:11:14.617Z,69.10
2017-11-28T23:13:54.176Z,69.30
2017-11-28T23:16:21.828Z,70.30
2017-11-28T23:18:49.450Z,71.80
2017-11-28T23:21:17.210Z,72.00
2017-11-28T23:23:45.387Z,72.40
2017-11-28T23:26:13.324Z,72.30
2017-11-28T23:28:41.215Z,71.60
2017-11-28T23:31:08.846Z,71.60
2017-11-28T23:38:45.257Z,72.30
2017-11-28T23:41:12.933Z,72.70
2017-11-28T23:43:40.574Z,72.40
2017-11-28T23:48:35.890Z,71.40
2017-11-28T23:51:03.511Z,72.10
2017-11-28T23:53:31.131Z,71.60
2017-11-28T23:55:58.855Z,72.90
2017-11-28T23:58:26.446Z,73.20
